sensor_id;sensor_type;location;lat;lon;timestamp;P1;durP1;ratioP1;P2;durP2;ratioP2
37781;SDS011;23621;50.878;4.584;2022-11-11T00:02:26;7.90;;;6.20;;
37781;SDS011;23621;50.878;4.584;2022-11-11T00:04:53;6.57;;;5.88;;
37781;SDS011;23621;50.878;4.584;2022-11-11T00:07:20;7.25;;;5.65;;
37781;SDS011;23621;50.878;4.584;2022-11-11T00:09:50;8.43;;;5.93;;
37781;SDS011;23621;50.878;4.584;2022-11-11T00:12:17;11.25;;;6.50;;
37781;SDS011;23621;50.878;4.584;2022-11-11T00:14:44;6.18;;;5.32;;
37781;SDS011;23621;50.878;4.584;2022-11-11T00:17:30;7.45;;;5.65;;
37781;SDS011;23621;50.878;4.584;2022-11-11T00:20:15;7.00;;;5.43;;
37781;SDS011;23621;50.878;4.584;2022-11-11T00:23:07;6.75;;;4.93;;
37781;SDS011;23621;50.878;4.584;2022-11-11T00:26:05;6.60;;;5.28;;
37781;SDS011;23621;50.878;4.584;2022-11-11T00:28:52;8.70;;;5.63;;
37781;SDS011;23621;50.878;4.584;2022-11-11T00:31:19;6.47;;;5.15;;
37781;SDS011;23621;50.878;4.584;2022-11-11T00:33:46;6.95;;;5.00;;
37781;SDS011;23621;50.878;4.584;2022-11-11T00:36:13;6.90;;;5.07;;
37781;SDS011;23621;50.878;4.584;2022-11-11T00:38:40;6.30;;;5.30;;
37781;SDS011;23621;50.878;4.584;2022-11-11T00:41:16;7.13;;;5.18;;
37781;SDS011;23621;50.878;4.584;2022-11-11T00:43:45;6.75;;;5.10;;
37781;SDS011;23621;50.878;4.584;2022-11-11T00:46:12;7.22;;;5.30;;
37781;SDS011;23621;50.878;4.584;2022-11-11T00:48:59;8.40;;;5.70;;
37781;SDS011;23621;50.878;4.584;2022-11-11T00:51:57;7.45;;;6.13;;
37781;SDS011;23621;50.878;4.584;2022-11-11T00:54:39;10.13;;;7.10;;
37781;SDS011;23621;50.878;4.584;2022-11-11T00:57:06;7.03;;;6.32;;
37781;SDS011;23621;50.878;4.584;2022-11-11T00:59:36;8.38;;;6.22;;
37781;SDS011;23621;50.878;4.584;2022-11-11T01:02:08;8.35;;;6.70;;
37781;SDS011;23621;50.878;4.584;2022-11-11T01:04:35;6.32;;;5.35;;
37781;SDS011;23621;50.878;4.584;2022-11-11T01:07:21;8.30;;;5.80;;
37781;SDS011;23621;50.878;4.584;2022-11-11T01:09:48;5.40;;;4.78;;
37781;SDS011;23621;50.878;4.584;2022-11-11T01:12:15;6.03;;;5.43;;
37781;SDS011;23621;50.878;4.584;2022-11-11T01:14:42;8.98;;;6.07;;
37781;SDS011;23621;50.878;4.584;2022-11-11T01:17:27;9.07;;;6.00;;
37781;SDS011;23621;50.878;4.584;2022-11-11T01:19:54;10.13;;;5.93;;
37781;SDS011;23621;50.878;4.584;2022-11-11T01:22:21;6.53;;;5.60;;
37781;SDS011;23621;50.878;4.584;2022-11-11T01:24:51;6.72;;;6.03;;
37781;SDS011;23621;50.878;4.584;2022-11-11T01:27:18;7.28;;;6.50;;
37781;SDS011;23621;50.878;4.584;2022-11-11T01:29:45;8.60;;;5.88;;
37781;SDS011;23621;50.878;4.584;2022-11-11T01:32:12;8.18;;;5.80;;
37781;SDS011;23621;50.878;4.584;2022-11-11T01:34:57;7.90;;;6.25;;
37781;SDS011;23621;50.878;4.584;2022-11-11T01:37:24;7.80;;;6.57;;
37781;SDS011;23621;50.878;4.584;2022-11-11T01:39:51;7.03;;;5.90;;
37781;SDS011;23621;50.878;4.584;2022-11-11T01:42:27;8.40;;;6.32;;
37781;SDS011;23621;50.878;4.584;2022-11-11T01:45:54;11.77;;;6.65;;
37781;SDS011;23621;50.878;4.584;2022-11-11T01:48:11;8.35;;;6.63;;
37781;SDS011;23621;50.878;4.584;2022-11-11T01:51:03;8.65;;;6.85;;
37781;SDS011;23621;50.878;4.584;2022-11-11T01:53:34;7.90;;;6.10;;
37781;SDS011;23621;50.878;4.584;2022-11-11T01:56:01;7.90;;;6.50;;
37781;SDS011;23621;50.878;4.584;2022-11-11T01:58:29;10.10;;;6.50;;
37781;SDS011;23621;50.878;4.584;2022-11-11T02:00:59;7.88;;;6.72;;
37781;SDS011;23621;50.878;4.584;2022-11-11T02:03:28;9.02;;;7.00;;
37781;SDS011;23621;50.878;4.584;2022-11-11T02:05:59;7.43;;;6.40;;
37781;SDS011;23621;50.878;4.584;2022-11-11T02:08:27;9.73;;;7.13;;
37781;SDS011;23621;50.878;4.584;2022-11-11T02:13:37;8.70;;;6.20;;
37781;SDS011;23621;50.878;4.584;2022-11-11T02:16:25;9.93;;;6.05;;
37781;SDS011;23621;50.878;4.584;2022-11-11T02:18:53;8.30;;;6.78;;
37781;SDS011;23621;50.878;4.584;2022-11-11T02:26:34;11.50;;;6.95;;
37781;SDS011;23621;50.878;4.584;2022-11-11T02:29:03;10.20;;;7.13;;
37781;SDS011;23621;50.878;4.584;2022-11-11T02:31:36;10.45;;;6.85;;
37781;SDS011;23621;50.878;4.584;2022-11-11T02:34:03;10.07;;;6.88;;
37781;SDS011;23621;50.878;4.584;2022-11-11T02:36:30;7.93;;;6.90;;
37781;SDS011;23621;50.878;4.584;2022-11-11T02:38:58;8.93;;;6.25;;
37781;SDS011;23621;50.878;4.584;2022-11-11T02:41:25;8.95;;;6.72;;
37781;SDS011;23621;50.878;4.584;2022-11-11T02:44:10;8.93;;;6.30;;
37781;SDS011;23621;50.878;4.584;2022-11-11T02:46:37;11.00;;;7.10;;
37781;SDS011;23621;50.878;4.584;2022-11-11T02:49:04;8.73;;;7.10;;
37781;SDS011;23621;50.878;4.584;2022-11-11T02:51:31;7.30;;;6.53;;
37781;SDS011;23621;50.878;4.584;2022-11-11T02:53:58;8.15;;;6.72;;
37781;SDS011;23621;50.878;4.584;2022-11-11T02:56:25;9.20;;;6.70;;
37781;SDS011;23621;50.878;4.584;2022-11-11T02:59:11;9.63;;;6.85;;
37781;SDS011;23621;50.878;4.584;2022-11-11T03:01:38;9.25;;;7.03;;
37781;SDS011;23621;50.878;4.584;2022-11-11T03:04:05;8.73;;;6.30;;
37781;SDS011;23621;50.878;4.584;2022-11-11T03:06:32;9.57;;;6.80;;
37781;SDS011;23621;50.878;4.584;2022-11-11T03:09:02;8.43;;;6.80;;
37781;SDS011;23621;50.878;4.584;2022-11-11T03:11:29;8.95;;;6.95;;
37781;SDS011;23621;50.878;4.584;2022-11-11T03:13:56;8.13;;;6.10;;
37781;SDS011;23621;50.878;4.584;2022-11-11T03:16:24;10.70;;;7.43;;
37781;SDS011;23621;50.878;4.584;2022-11-11T03:19:10;9.20;;;6.53;;
37781;SDS011;23621;50.878;4.584;2022-11-11T03:21:38;7.80;;;6.60;;
37781;SDS011;23621;50.878;4.584;2022-11-11T03:24:25;7.35;;;6.55;;
37781;SDS011;23621;50.878;4.584;2022-11-11T03:27:30;8.68;;;6.05;;
37781;SDS011;23621;50.878;4.584;2022-11-11T03:29:57;8.60;;;6.40;;
37781;SDS011;23621;50.878;4.584;2022-11-11T03:32:43;8.93;;;6.45;;
37781;SDS011;23621;50.878;4.584;2022-11-11T03:35:09;7.38;;;6.55;;
37781;SDS011;23621;50.878;4.584;2022-11-11T03:37:48;6.82;;;6.13;;
37781;SDS011;23621;50.878;4.584;2022-11-11T03:40:33;8.35;;;6.75;;
37781;SDS011;23621;50.878;4.584;2022-11-11T03:43:00;6.78;;;6.07;;
37781;SDS011;23621;50.878;4.584;2022-11-11T03:45:30;8.82;;;6.50;;
37781;SDS011;23621;50.878;4.584;2022-11-11T03:47:57;6.88;;;6.18;;
37781;SDS011;23621;50.878;4.584;2022-11-11T03:50:24;6.90;;;6.07;;
37781;SDS011;23621;50.878;4.584;2022-11-11T03:53:10;8.07;;;6.15;;
37781;SDS011;23621;50.878;4.584;2022-11-11T03:55:37;6.57;;;5.85;;
37781;SDS011;23621;50.878;4.584;2022-11-11T03:58:03;7.18;;;6.40;;
37781;SDS011;23621;50.878;4.584;2022-11-11T04:00:30;8.05;;;6.00;;
37781;SDS011;23621;50.878;4.584;2022-11-11T04:03:17;7.07;;;5.95;;
37781;SDS011;23621;50.878;4.584;2022-11-11T04:06:04;7.00;;;6.07;;
37781;SDS011;23621;50.878;4.584;2022-11-11T04:09:06;6.97;;;6.10;;
37781;SDS011;23621;50.878;4.584;2022-11-11T04:11:51;7.60;;;5.97;;
37781;SDS011;23621;50.878;4.584;2022-11-11T04:14:19;8.50;;;5.88;;
37781;SDS011;23621;50.878;4.584;2022-11-11T04:17:04;7.43;;;6.43;;
37781;SDS011;23621;50.878;4.584;2022-11-11T04:19:31;7.88;;;6.00;;
37781;SDS011;23621;50.878;4.584;2022-11-11T04:22:16;8.73;;;6.45;;
37781;SDS011;23621;50.878;4.584;2022-11-11T04:24:43;6.18;;;5.40;;
37781;SDS011;23621;50.878;4.584;2022-11-11T04:27:39;7.00;;;5.72;;
37781;SDS011;23621;50.878;4.584;2022-11-11T04:30:25;9.60;;;5.97;;
37781;SDS011;23621;50.878;4.584;2022-11-11T04:32:52;6.95;;;6.25;;
37781;SDS011;23621;50.878;4.584;2022-11-11T04:35:18;9.10;;;6.35;;
37781;SDS011;23621;50.878;4.584;2022-11-11T04:38:00;7.18;;;6.00;;
37781;SDS011;23621;50.878;4.584;2022-11-11T04:40:45;6.93;;;6.32;;
37781;SDS011;23621;50.878;4.584;2022-11-11T04:43:50;8.40;;;6.43;;
37781;SDS011;23621;50.878;4.584;2022-11-11T04:46:35;11.10;;;6.80;;
37781;SDS011;23621;50.878;4.584;2022-11-11T04:49:02;6.93;;;6.25;;
37781;SDS011;23621;50.878;4.584;2022-11-11T04:51:29;8.35;;;7.18;;
37781;SDS011;23621;50.878;4.584;2022-11-11T04:54:31;8.73;;;6.60;;
37781;SDS011;23621;50.878;4.584;2022-11-11T04:57:18;9.68;;;7.05;;
37781;SDS011;23621;50.878;4.584;2022-11-11T05:00:03;9.45;;;7.50;;
37781;SDS011;23621;50.878;4.584;2022-11-11T05:02:31;12.10;;;7.68;;
37781;SDS011;23621;50.878;4.584;2022-11-11T05:05:25;9.50;;;7.47;;
37781;SDS011;23621;50.878;4.584;2022-11-11T05:08:11;9.75;;;8.20;;
37781;SDS011;23621;50.878;4.584;2022-11-11T05:10:56;8.15;;;7.30;;
37781;SDS011;23621;50.878;4.584;2022-11-11T05:13:23;8.05;;;7.25;;
37781;SDS011;23621;50.878;4.584;2022-11-11T05:16:21;9.27;;;8.07;;
37781;SDS011;23621;50.878;4.584;2022-11-11T05:19:10;9.82;;;7.65;;
37781;SDS011;23621;50.878;4.584;2022-11-11T05:25:02;13.95;;;7.90;;
37781;SDS011;23621;50.878;4.584;2022-11-11T05:28:07;10.52;;;8.65;;
37781;SDS011;23621;50.878;4.584;2022-11-11T05:30:34;12.27;;;7.95;;
37781;SDS011;23621;50.878;4.584;2022-11-11T05:33:01;9.18;;;8.02;;
37781;SDS011;23621;50.878;4.584;2022-11-11T05:35:31;9.40;;;8.15;;
37781;SDS011;23621;50.878;4.584;2022-11-11T05:38:16;9.40;;;7.50;;
37781;SDS011;23621;50.878;4.584;2022-11-11T05:40:45;9.95;;;7.68;;
37781;SDS011;23621;50.878;4.584;2022-11-11T05:43:12;9.23;;;7.88;;
37781;SDS011;23621;50.878;4.584;2022-11-11T05:45:42;10.60;;;8.07;;
37781;SDS011;23621;50.878;4.584;2022-11-11T05:48:09;8.70;;;7.68;;
37781;SDS011;23621;50.878;4.584;2022-11-11T05:50:56;9.40;;;7.78;;
37781;SDS011;23621;50.878;4.584;2022-11-11T05:53:24;11.07;;;7.68;;
37781;SDS011;23621;50.878;4.584;2022-11-11T05:56:00;10.05;;;7.55;;
37781;SDS011;23621;50.878;4.584;2022-11-11T05:58:39;9.63;;;7.78;;
37781;SDS011;23621;50.878;4.584;2022-11-11T06:01:24;9.07;;;7.38;;
37781;SDS011;23621;50.878;4.584;2022-11-11T06:03:51;11.57;;;7.75;;
37781;SDS011;23621;50.878;4.584;2022-11-11T06:06:18;10.80;;;7.65;;
37781;SDS011;23621;50.878;4.584;2022-11-11T06:08:45;8.73;;;7.32;;
37781;SDS011;23621;50.878;4.584;2022-11-11T06:11:12;10.48;;;8.00;;
37781;SDS011;23621;50.878;4.584;2022-11-11T06:13:39;9.73;;;7.95;;
37781;SDS011;23621;50.878;4.584;2022-11-11T06:16:24;8.88;;;7.75;;
37781;SDS011;23621;50.878;4.584;2022-11-11T06:18:51;9.05;;;7.47;;
37781;SDS011;23621;50.878;4.584;2022-11-11T06:21:37;8.20;;;7.30;;
37781;SDS011;23621;50.878;4.584;2022-11-11T06:24:22;8.93;;;6.78;;
37781;SDS011;23621;50.878;4.584;2022-11-11T06:27:01;8.45;;;7.05;;
37781;SDS011;23621;50.878;4.584;2022-11-11T06:29:27;8.05;;;7.18;;
37781;SDS011;23621;50.878;4.584;2022-11-11T06:31:54;8.70;;;7.25;;
37781;SDS011;23621;50.878;4.584;2022-11-11T06:34:21;7.57;;;6.72;;
37781;SDS011;23621;50.878;4.584;2022-11-11T06:36:48;8.15;;;6.63;;
37781;SDS011;23621;50.878;4.584;2022-11-11T06:39:15;7.72;;;6.93;;
37781;SDS011;23621;50.878;4.584;2022-11-11T06:41:42;8.13;;;6.40;;
37781;SDS011;23621;50.878;4.584;2022-11-11T06:44:09;9.00;;;7.30;;
37781;SDS011;23621;50.878;4.584;2022-11-11T06:46:36;10.15;;;7.38;;
37781;SDS011;23621;50.878;4.584;2022-11-11T06:49:03;8.50;;;6.85;;
37781;SDS011;23621;50.878;4.584;2022-11-11T06:51:29;9.20;;;6.88;;
37781;SDS011;23621;50.878;4.584;2022-11-11T06:53:59;9.20;;;6.60;;
37781;SDS011;23621;50.878;4.584;2022-11-11T06:56:32;10.50;;;6.50;;
37781;SDS011;23621;50.878;4.584;2022-11-11T06:58:59;7.97;;;6.45;;
37781;SDS011;23621;50.878;4.584;2022-11-11T07:01:26;7.25;;;6.55;;
37781;SDS011;23621;50.878;4.584;2022-11-11T07:03:53;11.90;;;7.55;;
37781;SDS011;23621;50.878;4.584;2022-11-11T07:06:37;8.80;;;6.70;;
37781;SDS011;23621;50.878;4.584;2022-11-11T07:09:04;10.57;;;6.78;;
37781;SDS011;23621;50.878;4.584;2022-11-11T07:11:31;8.15;;;6.97;;
37781;SDS011;23621;50.878;4.584;2022-11-11T07:13:58;10.68;;;6.60;;
37781;SDS011;23621;50.878;4.584;2022-11-11T07:16:43;7.85;;;6.50;;
37781;SDS011;23621;50.878;4.584;2022-11-11T07:19:10;9.10;;;6.75;;
37781;SDS011;23621;50.878;4.584;2022-11-11T07:21:37;9.93;;;7.07;;
37781;SDS011;23621;50.878;4.584;2022-11-11T07:24:04;9.23;;;6.50;;
37781;SDS011;23621;50.878;4.584;2022-11-11T07:26:31;8.82;;;6.65;;
37781;SDS011;23621;50.878;4.584;2022-11-11T07:28:58;10.45;;;6.85;;
37781;SDS011;23621;50.878;4.584;2022-11-11T07:31:25;8.15;;;6.20;;
37781;SDS011;23621;50.878;4.584;2022-11-11T07:33:52;9.00;;;7.28;;
37781;SDS011;23621;50.878;4.584;2022-11-11T07:36:19;10.43;;;6.72;;
37781;SDS011;23621;50.878;4.584;2022-11-11T07:38:46;8.48;;;6.80;;
37781;SDS011;23621;50.878;4.584;2022-11-11T07:41:13;8.38;;;6.80;;
37781;SDS011;23621;50.878;4.584;2022-11-11T07:43:43;7.50;;;6.03;;
37781;SDS011;23621;50.878;4.584;2022-11-11T07:46:10;10.48;;;6.60;;
37781;SDS011;23621;50.878;4.584;2022-11-11T07:48:36;8.32;;;6.65;;
37781;SDS011;23621;50.878;4.584;2022-11-11T07:51:03;8.70;;;6.30;;
37781;SDS011;23621;50.878;4.584;2022-11-11T07:53:50;8.10;;;6.43;;
37781;SDS011;23621;50.878;4.584;2022-11-11T07:56:17;10.45;;;6.53;;
37781;SDS011;23621;50.878;4.584;2022-11-11T07:58:44;9.25;;;6.50;;
37781;SDS011;23621;50.878;4.584;2022-11-11T08:01:29;8.75;;;7.35;;
37781;SDS011;23621;50.878;4.584;2022-11-11T08:03:56;8.80;;;6.60;;
37781;SDS011;23621;50.878;4.584;2022-11-11T08:06:22;9.90;;;6.53;;
37781;SDS011;23621;50.878;4.584;2022-11-11T08:08:50;8.43;;;6.28;;
37781;SDS011;23621;50.878;4.584;2022-11-11T08:11:16;8.80;;;6.45;;
37781;SDS011;23621;50.878;4.584;2022-11-11T08:14:03;7.68;;;6.32;;
37781;SDS011;23621;50.878;4.584;2022-11-11T08:16:30;7.18;;;6.03;;
37781;SDS011;23621;50.878;4.584;2022-11-11T08:18:57;9.38;;;6.50;;
37781;SDS011;23621;50.878;4.584;2022-11-11T08:21:25;8.45;;;6.15;;
37781;SDS011;23621;50.878;4.584;2022-11-11T08:23:52;6.43;;;5.55;;
37781;SDS011;23621;50.878;4.584;2022-11-11T08:26:39;6.95;;;5.75;;
37781;SDS011;23621;50.878;4.584;2022-11-11T08:29:06;8.60;;;5.75;;
37781;SDS011;23621;50.878;4.584;2022-11-11T08:31:33;7.60;;;5.70;;
37781;SDS011;23621;50.878;4.584;2022-11-11T08:34:00;8.70;;;6.45;;
37781;SDS011;23621;50.878;4.584;2022-11-11T08:36:27;7.80;;;5.65;;
37781;SDS011;23621;50.878;4.584;2022-11-11T08:38:54;7.95;;;6.20;;
37781;SDS011;23621;50.878;4.584;2022-11-11T08:41:24;8.52;;;6.05;;
37781;SDS011;23621;50.878;4.584;2022-11-11T08:43:54;6.75;;;5.38;;
37781;SDS011;23621;50.878;4.584;2022-11-11T08:46:22;8.13;;;6.00;;
37781;SDS011;23621;50.878;4.584;2022-11-11T08:49:08;7.72;;;5.80;;
37781;SDS011;23621;50.878;4.584;2022-11-11T08:51:36;11.55;;;6.75;;
37781;SDS011;23621;50.878;4.584;2022-11-11T08:54:10;8.80;;;5.15;;
37781;SDS011;23621;50.878;4.584;2022-11-11T08:56:37;7.38;;;5.18;;
37781;SDS011;23621;50.878;4.584;2022-11-11T08:59:06;9.07;;;5.97;;
37781;SDS011;23621;50.878;4.584;2022-11-11T09:01:35;6.47;;;5.07;;
37781;SDS011;23621;50.878;4.584;2022-11-11T09:04:02;6.15;;;5.30;;
37781;SDS011;23621;50.878;4.584;2022-11-11T09:06:49;5.65;;;5.00;;
37781;SDS011;23621;50.878;4.584;2022-11-11T09:09:16;10.98;;;6.72;;
37781;SDS011;23621;50.878;4.584;2022-11-11T09:11:43;6.60;;;5.60;;
37781;SDS011;23621;50.878;4.584;2022-11-11T09:14:10;6.82;;;5.03;;
37781;SDS011;23621;50.878;4.584;2022-11-11T09:16:40;5.43;;;4.75;;
37781;SDS011;23621;50.878;4.584;2022-11-11T09:19:19;6.22;;;4.85;;
37781;SDS011;23621;50.878;4.584;2022-11-11T09:21:45;6.07;;;4.80;;
37781;SDS011;23621;50.878;4.584;2022-11-11T09:24:12;6.75;;;5.20;;
37781;SDS011;23621;50.878;4.584;2022-11-11T09:26:39;6.13;;;4.75;;
37781;SDS011;23621;50.878;4.584;2022-11-11T09:29:24;6.57;;;4.88;;
37781;SDS011;23621;50.878;4.584;2022-11-11T09:31:51;5.43;;;4.45;;
37781;SDS011;23621;50.878;4.584;2022-11-11T09:34:37;7.53;;;4.55;;
37781;SDS011;23621;50.878;4.584;2022-11-11T09:37:04;4.90;;;4.28;;
37781;SDS011;23621;50.878;4.584;2022-11-11T09:39:31;5.63;;;4.10;;
37781;SDS011;23621;50.878;4.584;2022-11-11T09:42:32;5.95;;;4.30;;
37781;SDS011;23621;50.878;4.584;2022-11-11T09:45:20;4.18;;;3.72;;
37781;SDS011;23621;50.878;4.584;2022-11-11T09:50:53;3.92;;;3.53;;
37781;SDS011;23621;50.878;4.584;2022-11-11T09:53:36;4.03;;;3.63;;
37781;SDS011;23621;50.878;4.584;2022-11-11T09:56:27;3.85;;;3.40;;
37781;SDS011;23621;50.878;4.584;2022-11-11T09:59:02;6.80;;;3.70;;
37781;SDS011;23621;50.878;4.584;2022-11-11T10:01:41;4.40;;;3.40;;
37781;SDS011;23621;50.878;4.584;2022-11-11T10:04:34;4.22;;;3.58;;
37781;SDS011;23621;50.878;4.584;2022-11-11T10:07:13;3.53;;;3.20;;
37781;SDS011;23621;50.878;4.584;2022-11-11T10:10:01;4.28;;;3.33;;
37781;SDS011;23621;50.878;4.584;2022-11-11T10:12:54;3.35;;;2.78;;
37781;SDS011;23621;50.878;4.584;2022-11-11T10:15:27;3.20;;;2.90;;
37781;SDS011;23621;50.878;4.584;2022-11-11T10:18:10;4.13;;;3.10;;
37781;SDS011;23621;50.878;4.584;2022-11-11T10:20:46;4.15;;;3.10;;
37781;SDS011;23621;50.878;4.584;2022-11-11T10:23:20;3.40;;;2.78;;
37781;SDS011;23621;50.878;4.584;2022-11-11T10:25:55;3.08;;;2.80;;
37781;SDS011;23621;50.878;4.584;2022-11-11T10:28:25;2.67;;;2.47;;
37781;SDS011;23621;50.878;4.584;2022-11-11T10:30:56;3.05;;;2.60;;
37781;SDS011;23621;50.878;4.584;2022-11-11T10:33:49;5.85;;;4.22;;
37781;SDS011;23621;50.878;4.584;2022-11-11T10:36:17;4.93;;;3.88;;
37781;SDS011;23621;50.878;4.584;2022-11-11T10:39:04;4.68;;;3.10;;
37781;SDS011;23621;50.878;4.584;2022-11-11T10:41:38;3.03;;;2.72;;
37781;SDS011;23621;50.878;4.584;2022-11-11T10:44:31;2.53;;;2.33;;
37781;SDS011;23621;50.878;4.584;2022-11-11T10:49:42;2.47;;;2.28;;
37781;SDS011;23621;50.878;4.584;2022-11-11T10:52:19;3.85;;;2.42;;
37781;SDS011;23621;50.878;4.584;2022-11-11T11:00:00;3.65;;;2.45;;
37781;SDS011;23621;50.878;4.584;2022-11-11T11:02:45;5.30;;;2.75;;
37781;SDS011;23621;50.878;4.584;2022-11-11T11:05:51;2.40;;;2.20;;
37781;SDS011;23621;50.878;4.584;2022-11-11T11:08:44;4.07;;;3.03;;
37781;SDS011;23621;50.878;4.584;2022-11-11T11:14:28;2.67;;;1.80;;
37781;SDS011;23621;50.878;4.584;2022-11-11T11:16:59;2.20;;;2.00;;
37781;SDS011;23621;50.878;4.584;2022-11-11T11:19:32;2.25;;;1.90;;
37781;SDS011;23621;50.878;4.584;2022-11-11T11:22:00;3.00;;;2.35;;
37781;SDS011;23621;50.878;4.584;2022-11-11T11:24:29;4.35;;;3.28;;
37781;SDS011;23621;50.878;4.584;2022-11-11T11:27:02;2.67;;;2.17;;
37781;SDS011;23621;50.878;4.584;2022-11-11T11:29:42;3.97;;;2.78;;
37781;SDS011;23621;50.878;4.584;2022-11-11T11:32:20;2.35;;;2.00;;
37781;SDS011;23621;50.878;4.584;2022-11-11T11:34:54;3.13;;;2.28;;
37781;SDS011;23621;50.878;4.584;2022-11-11T11:37:22;3.05;;;1.77;;
37781;SDS011;23621;50.878;4.584;2022-11-11T11:40:00;1.90;;;1.80;;
37781;SDS011;23621;50.878;4.584;2022-11-11T11:42:33;2.05;;;1.70;;
37781;SDS011;23621;50.878;4.584;2022-11-11T11:45:21;2.10;;;1.90;;
37781;SDS011;23621;50.878;4.584;2022-11-11T12:00:03;2.17;;;1.60;;
37781;SDS011;23621;50.878;4.584;2022-11-11T12:05:34;2.03;;;1.92;;
37781;SDS011;23621;50.878;4.584;2022-11-11T12:08:32;1.50;;;1.40;;
37781;SDS011;23621;50.878;4.584;2022-11-11T12:11:52;3.47;;;2.00;;
37781;SDS011;23621;50.878;4.584;2022-11-11T12:17:17;2.03;;;1.75;;
37781;SDS011;23621;50.878;4.584;2022-11-11T12:20:56;2.30;;;1.80;;
37781;SDS011;23621;50.878;4.584;2022-11-11T12:23:25;1.60;;;1.50;;
37781;SDS011;23621;50.878;4.584;2022-11-11T12:26:02;1.70;;;1.60;;
37781;SDS011;23621;50.878;4.584;2022-11-11T12:31:31;1.70;;;1.60;;
37781;SDS011;23621;50.878;4.584;2022-11-11T12:34:34;1.65;;;1.52;;
37781;SDS011;23621;50.878;4.584;2022-11-11T12:40:22;1.90;;;1.70;;
37781;SDS011;23621;50.878;4.584;2022-11-11T12:48:53;1.52;;;1.42;;
37781;SDS011;23621;50.878;4.584;2022-11-11T12:54:18;2.25;;;1.63;;
37781;SDS011;23621;50.878;4.584;2022-11-11T13:00:22;2.28;;;1.42;;
37781;SDS011;23621;50.878;4.584;2022-11-11T13:11:54;2.35;;;1.70;;
37781;SDS011;23621;50.878;4.584;2022-11-11T13:14:48;1.80;;;1.70;;
37781;SDS011;23621;50.878;4.584;2022-11-11T13:17:21;2.03;;;1.60;;
37781;SDS011;23621;50.878;4.584;2022-11-11T13:22:49;2.42;;;1.55;;
37781;SDS011;23621;50.878;4.584;2022-11-11T13:25:34;1.77;;;1.67;;
37781;SDS011;23621;50.878;4.584;2022-11-11T13:33:35;1.50;;;1.40;;
37781;SDS011;23621;50.878;4.584;2022-11-11T13:36:07;2.10;;;1.80;;
37781;SDS011;23621;50.878;4.584;2022-11-11T13:38:44;1.60;;;1.50;;
37781;SDS011;23621;50.878;4.584;2022-11-11T13:41:32;2.10;;;1.90;;
37781;SDS011;23621;50.878;4.584;2022-11-11T13:44:05;1.92;;;1.75;;
37781;SDS011;23621;50.878;4.584;2022-11-11T13:49:25;1.85;;;1.75;;
37781;SDS011;23621;50.878;4.584;2022-11-11T13:52:36;1.73;;;1.63;;
37781;SDS011;23621;50.878;4.584;2022-11-11T13:55:11;1.85;;;1.75;;
37781;SDS011;23621;50.878;4.584;2022-11-11T13:58:23;1.95;;;1.80;;
37781;SDS011;23621;50.878;4.584;2022-11-11T14:00:59;1.90;;;1.70;;
37781;SDS011;23621;50.878;4.584;2022-11-11T14:03:32;1.90;;;1.73;;
37781;SDS011;23621;50.878;4.584;2022-11-11T14:08:53;1.70;;;1.60;;
37781;SDS011;23621;50.878;4.584;2022-11-11T14:13:56;3.05;;;1.70;;
37781;SDS011;23621;50.878;4.584;2022-11-11T14:21:59;1.92;;;1.73;;
37781;SDS011;23621;50.878;4.584;2022-11-11T14:24:46;3.25;;;1.98;;
37781;SDS011;23621;50.878;4.584;2022-11-11T14:27:14;3.72;;;2.15;;
37781;SDS011;23621;50.878;4.584;2022-11-11T14:30:02;1.90;;;1.75;;
37781;SDS011;23621;50.878;4.584;2022-11-11T14:32:50;2.03;;;1.83;;
37781;SDS011;23621;50.878;4.584;2022-11-11T14:36:31;2.88;;;1.90;;
37781;SDS011;23621;50.878;4.584;2022-11-11T14:38:47;2.13;;;1.92;;
37781;SDS011;23621;50.878;4.584;2022-11-11T14:41:44;3.03;;;1.73;;
37781;SDS011;23621;50.878;4.584;2022-11-11T14:44:56;2.50;;;2.30;;
37781;SDS011;23621;50.878;4.584;2022-11-11T14:47:30;2.65;;;2.17;;
37781;SDS011;23621;50.878;4.584;2022-11-11T14:50:39;4.47;;;4.03;;
37781;SDS011;23621;50.878;4.584;2022-11-11T14:53:17;9.40;;;5.70;;
37781;SDS011;23621;50.878;4.584;2022-11-11T14:55:50;4.18;;;3.30;;
37781;SDS011;23621;50.878;4.584;2022-11-11T14:58:20;3.05;;;2.20;;
37781;SDS011;23621;50.878;4.584;2022-11-11T15:03:48;3.00;;;2.20;;
37781;SDS011;23621;50.878;4.584;2022-11-11T15:06:26;3.30;;;2.35;;
37781;SDS011;23621;50.878;4.584;2022-11-11T15:11:46;3.03;;;2.25;;
37781;SDS011;23621;50.878;4.584;2022-11-11T15:17:20;7.07;;;2.55;;
37781;SDS011;23621;50.878;4.584;2022-11-11T15:28:42;7.18;;;3.78;;
37781;SDS011;23621;50.878;4.584;2022-11-11T15:39:38;3.47;;;2.75;;
37781;SDS011;23621;50.878;4.584;2022-11-11T15:42:23;4.15;;;2.47;;
37781;SDS011;23621;50.878;4.584;2022-11-11T15:45:04;4.55;;;3.08;;
37781;SDS011;23621;50.878;4.584;2022-11-11T15:47:46;4.13;;;3.35;;
37781;SDS011;23621;50.878;4.584;2022-11-11T15:50:35;3.85;;;2.85;;
37781;SDS011;23621;50.878;4.584;2022-11-11T15:53:02;3.35;;;3.00;;
37781;SDS011;23621;50.878;4.584;2022-11-11T15:55:34;3.80;;;3.00;;
37781;SDS011;23621;50.878;4.584;2022-11-11T15:58:16;3.45;;;3.08;;
37781;SDS011;23621;50.878;4.584;2022-11-11T16:00:50;4.72;;;3.10;;
37781;SDS011;23621;50.878;4.584;2022-11-11T16:04:00;4.40;;;3.30;;
37781;SDS011;23621;50.878;4.584;2022-11-11T16:22:46;15.77;;;5.07;;
37781;SDS011;23621;50.878;4.584;2022-11-11T16:25:35;7.32;;;4.05;;
37781;SDS011;23621;50.878;4.584;2022-11-11T16:28:25;7.20;;;3.30;;
37781;SDS011;23621;50.878;4.584;2022-11-11T16:37:11;4.38;;;3.75;;
37781;SDS011;23621;50.878;4.584;2022-11-11T16:39:42;4.55;;;3.60;;
37781;SDS011;23621;50.878;4.584;2022-11-11T16:42:25;3.72;;;3.40;;
37781;SDS011;23621;50.878;4.584;2022-11-11T16:45:02;8.27;;;4.05;;
37781;SDS011;23621;50.878;4.584;2022-11-11T16:50:50;5.40;;;4.13;;
37781;SDS011;23621;50.878;4.584;2022-11-11T16:53:00;8.32;;;4.40;;
37781;SDS011;23621;50.878;4.584;2022-11-11T16:55:45;5.82;;;4.80;;
37781;SDS011;23621;50.878;4.584;2022-11-11T17:00:44;6.40;;;4.65;;
37781;SDS011;23621;50.878;4.584;2022-11-11T17:03:13;8.43;;;4.97;;
37781;SDS011;23621;50.878;4.584;2022-11-11T17:08:34;5.97;;;5.40;;
37781;SDS011;23621;50.878;4.584;2022-11-11T17:11:07;5.53;;;5.03;;
37781;SDS011;23621;50.878;4.584;2022-11-11T17:13:54;6.43;;;5.30;;
37781;SDS011;23621;50.878;4.584;2022-11-11T17:16:21;5.47;;;4.57;;
37781;SDS011;23621;50.878;4.584;2022-11-11T17:18:48;5.47;;;4.97;;
37781;SDS011;23621;50.878;4.584;2022-11-11T17:21:15;7.18;;;5.30;;
37781;SDS011;23621;50.878;4.584;2022-11-11T17:23:42;5.70;;;5.10;;
37781;SDS011;23621;50.878;4.584;2022-11-11T17:26:08;5.15;;;4.75;;
37781;SDS011;23621;50.878;4.584;2022-11-11T17:28:36;6.82;;;5.32;;
37781;SDS011;23621;50.878;4.584;2022-11-11T17:31:06;6.03;;;5.20;;
37781;SDS011;23621;50.878;4.584;2022-11-11T17:33:34;5.65;;;5.03;;
37781;SDS011;23621;50.878;4.584;2022-11-11T17:36:01;7.88;;;5.45;;
37781;SDS011;23621;50.878;4.584;2022-11-11T17:38:28;6.60;;;4.78;;
37781;SDS011;23621;50.878;4.584;2022-11-11T17:41:00;5.28;;;4.75;;
37781;SDS011;23621;50.878;4.584;2022-11-11T17:43:27;5.75;;;5.15;;
37781;SDS011;23621;50.878;4.584;2022-11-11T17:45:54;8.00;;;5.43;;
37781;SDS011;23621;50.878;4.584;2022-11-11T17:48:21;6.97;;;6.13;;
37781;SDS011;23621;50.878;4.584;2022-11-11T17:50:48;7.95;;;6.65;;
37781;SDS011;23621;50.878;4.584;2022-11-11T17:53:14;8.00;;;6.95;;
37781;SDS011;23621;50.878;4.584;2022-11-11T17:55:42;7.97;;;7.18;;
37781;SDS011;23621;50.878;4.584;2022-11-11T17:58:10;9.68;;;7.43;;
37781;SDS011;23621;50.878;4.584;2022-11-11T18:00:38;10.48;;;8.27;;
37781;SDS011;23621;50.878;4.584;2022-11-11T18:03:08;10.63;;;8.55;;
37781;SDS011;23621;50.878;4.584;2022-11-11T18:05:35;11.95;;;9.35;;